createdAt,value
2018-06-19T00:02:17.742Z,99.90
2018-06-19T00:04:46.152Z,99.90
2018-06-19T00:07:14.687Z,99.90
2018-06-19T00:09:42.834Z,99.90
2018-06-19T00:12:11.819Z,99.90
2018-06-19T00:14:39.973Z,99.90
2018-06-19T00:17:08.120Z,99.90
2018-06-19T00:19:39.903Z,99.90
2018-06-19T00:22:08.062Z,99.90
2018-06-19T00:24:39.680Z,99.90
2018-06-19T00:27:07.837Z,99.90
2018-06-19T00:29:35.989Z,99.90
2018-06-19T00:32:04.170Z,99.90
2018-06-19T00:34:32.317Z,99.90
2018-06-19T00:37:00.483Z,99.90
2018-06-19T00:39:28.651Z,99.90
2018-06-19T00:41:56.819Z,99.90
2018-06-19T00:44:25.012Z,99.90
2018-06-19T00:49:21.283Z,99.90
2018-06-19T00:51:49.484Z,99.90
2018-06-19T00:54:17.633Z,99.90
2018-06-19T00:56:51.772Z,99.90
2018-06-19T00:59:19.935Z,99.90
2018-06-19T01:01:48.116Z,99.90
2018-06-19T01:04:16.339Z,99.90
2018-06-19T01:06:44.822Z,99.90
2018-06-19T01:09:13.552Z,99.90
2018-06-19T01:11:41.867Z,99.90
2018-06-19T01:14:10.032Z,99.90
2018-06-19T01:16:38.281Z,99.90
2018-06-19T01:19:06.555Z,99.90
2018-06-19T01:21:34.734Z,99.90
2018-06-19T01:24:02.931Z,99.90
2018-06-19T01:26:31.102Z,99.90
2018-06-19T01:28:59.282Z,99.90
2018-06-19T01:31:27.428Z,99.90
2018-06-19T01:33:55.635Z,99.90
2018-06-19T01:36:23.812Z,99.90
2018-06-19T01:38:52.006Z,99.90
2018-06-19T01:41:21.457Z,99.90
2018-06-19T01:43:49.639Z,99.90
2018-06-19T01:46:17.825Z,99.90
2018-06-19T01:48:46.254Z,99.90
2018-06-19T01:51:14.430Z,99.90
2018-06-19T01:53:42.595Z,99.90
2018-06-19T01:56:10.764Z,99.90
2018-06-19T01:58:39.108Z,99.90
2018-06-19T02:01:07.268Z,99.90
2018-06-19T02:03:35.439Z,99.90
2018-06-19T02:06:03.795Z,99.90
2018-06-19T02:08:32.210Z,99.90
2018-06-19T02:11:00.372Z,99.90
2018-06-19T02:13:28.547Z,99.90
2018-06-19T02:15:57.084Z,99.90
2018-06-19T02:18:25.249Z,99.90
2018-06-19T02:20:53.758Z,99.90
2018-06-19T02:23:21.971Z,99.90
2018-06-19T02:25:50.129Z,99.90
2018-06-19T02:28:18.401Z,99.90
2018-06-19T02:30:46.572Z,99.90
2018-06-19T02:33:14.744Z,99.90
2018-06-19T02:35:42.903Z,99.90
2018-06-19T02:38:11.110Z,99.90
2018-06-19T02:40:39.343Z,99.90
2018-06-19T02:43:07.524Z,99.90
2018-06-19T02:45:35.685Z,99.90
2018-06-19T02:48:03.837Z,99.90
2018-06-19T02:50:32.033Z,99.90
2018-06-19T02:53:00.204Z,99.90
2018-06-19T02:55:28.403Z,99.90
2018-06-19T02:57:56.561Z,99.90
2018-06-19T03:00:24.742Z,99.90
2018-06-19T03:02:52.973Z,99.90
2018-06-19T03:05:21.440Z,99.90
2018-06-19T03:07:49.700Z,99.90
2018-06-19T03:10:17.966Z,99.90
2018-06-19T03:12:46.117Z,99.90
2018-06-19T03:15:14.288Z,99.90
2018-06-19T03:17:42.860Z,99.90
2018-06-19T03:22:38.971Z,99.90
2018-06-19T03:25:07.160Z,99.90
2018-06-19T03:27:35.318Z,99.90
2018-06-19T03:30:03.459Z,99.90
2018-06-19T03:32:31.634Z,99.90
2018-06-19T03:34:59.956Z,99.90
2018-06-19T03:37:28.234Z,99.90
2018-06-19T03:39:56.382Z,99.90
2018-06-19T03:42:24.645Z,99.90
2018-06-19T03:44:52.900Z,99.90
2018-06-19T03:47:21.052Z,99.90
2018-06-19T03:49:49.214Z,99.90
2018-06-19T03:52:17.580Z,99.90
2018-06-19T03:54:45.744Z,99.90
2018-06-19T03:57:13.895Z,99.90
2018-06-19T03:59:42.128Z,99.90
2018-06-19T04:02:10.305Z,99.90
2018-06-19T04:04:38.477Z,99.90
2018-06-19T04:07:07.772Z,99.90
2018-06-19T04:09:35.925Z,99.90
2018-06-19T04:12:04.085Z,99.90
2018-06-19T04:14:32.270Z,99.80
2018-06-19T04:19:29.046Z,99.60
2018-06-19T04:21:57.208Z,99.60
2018-06-19T04:24:25.376Z,99.30
2018-06-19T04:26:53.563Z,99.10
2018-06-19T04:31:49.655Z,99.00
2018-06-19T04:34:17.820Z,98.80
2018-06-19T04:36:45.982Z,98.80
2018-06-19T04:39:14.179Z,98.70
2018-06-19T04:41:42.604Z,98.70
2018-06-19T04:44:10.781Z,98.70
2018-06-19T04:46:38.938Z,98.60
2018-06-19T04:49:07.112Z,98.60
2018-06-19T04:51:35.392Z,98.90
2018-06-19T04:54:03.688Z,99.00
2018-06-19T04:56:31.860Z,98.70
2018-06-19T04:59:00.045Z,98.60
2018-06-19T05:01:28.293Z,97.70
2018-06-19T05:03:56.467Z,97.20
2018-06-19T05:06:24.858Z,97.00
2018-06-19T05:08:53.010Z,96.70
2018-06-19T05:11:21.203Z,96.40
2018-06-19T05:13:49.416Z,96.00
2018-06-19T05:16:17.596Z,96.10
2018-06-19T05:18:45.852Z,96.40
2018-06-19T05:21:14.033Z,96.40
2018-06-19T05:23:42.184Z,95.80
2018-06-19T05:26:10.381Z,95.00
2018-06-19T05:28:38.540Z,94.20
2018-06-19T05:31:06.902Z,93.70
2018-06-19T05:33:35.283Z,92.80
2018-06-19T05:36:03.593Z,92.30
2018-06-19T05:38:31.859Z,91.10
2018-06-19T05:41:00.232Z,90.60
2018-06-19T05:43:28.464Z,90.70
2018-06-19T05:45:56.685Z,90.70
2018-06-19T05:48:24.863Z,90.30
2018-06-19T05:50:53.230Z,90.40
2018-06-19T05:53:21.425Z,90.70
2018-06-19T05:55:49.605Z,91.10
2018-06-19T05:58:17.784Z,91.30
2018-06-19T06:00:45.981Z,91.30
2018-06-19T06:03:14.321Z,91.40
2018-06-19T06:05:42.548Z,91.50
2018-06-19T06:08:10.676Z,91.60
2018-06-19T06:10:38.982Z,91.20
2018-06-19T06:13:07.150Z,90.20
2018-06-19T06:18:03.342Z,85.10
2018-06-19T06:20:31.530Z,83.60
2018-06-19T06:22:59.705Z,82.70
2018-06-19T06:25:27.896Z,82.40
2018-06-19T06:27:56.116Z,78.60
2018-06-19T06:30:24.295Z,76.80
2018-06-19T06:32:52.483Z,76.60
2018-06-19T06:35:20.816Z,76.20
2018-06-19T06:37:49.000Z,74.90
2018-06-19T06:40:17.190Z,74.30
2018-06-19T06:42:45.404Z,74.90
2018-06-19T06:45:13.809Z,74.20
2018-06-19T06:47:41.967Z,73.60
2018-06-19T06:50:10.320Z,73.50
2018-06-19T06:52:38.426Z,73.20
2018-06-19T06:55:06.593Z,72.70
2018-06-19T06:57:34.784Z,72.60
2018-06-19T07:00:02.989Z,72.40
2018-06-19T07:02:31.318Z,71.30
2018-06-19T07:04:59.695Z,71.20
2018-06-19T07:07:27.992Z,70.30
2018-06-19T07:09:56.169Z,71.20
2018-06-19T07:12:24.343Z,70.30
2018-06-19T07:14:52.670Z,70.10
2018-06-19T07:17:20.855Z,69.70
2018-06-19T07:19:49.027Z,67.20
2018-06-19T07:22:17.223Z,66.70
2018-06-19T07:24:45.422Z,64.90
2018-06-19T07:27:13.953Z,63.60
2018-06-19T07:29:42.120Z,63.80
2018-06-19T07:32:10.283Z,62.90
2018-06-19T07:34:38.438Z,63.40
2018-06-19T07:37:06.620Z,62.90
2018-06-19T07:39:34.794Z,62.50
2018-06-19T07:44:30.879Z,61.30
2018-06-19T07:46:59.057Z,61.00
2018-06-19T07:49:27.264Z,60.70
2018-06-19T07:51:55.425Z,59.40
2018-06-19T07:54:23.595Z,58.40
2018-06-19T07:56:51.906Z,57.40
2018-06-19T07:59:20.080Z,56.30
2018-06-19T08:01:48.247Z,57.10
2018-06-19T08:04:16.406Z,57.40
2018-06-19T08:06:44.572Z,57.40
2018-06-19T08:09:12.913Z,55.90
2018-06-19T08:11:41.093Z,54.90
2018-06-19T08:14:09.580Z,53.00
2018-06-19T08:16:38.283Z,52.10
2018-06-19T08:19:06.463Z,51.30
2018-06-19T08:21:34.637Z,49.70
2018-06-19T08:26:30.800Z,48.60
2018-06-19T08:28:59.122Z,48.40
2018-06-19T08:33:55.059Z,48.10
2018-06-19T08:36:23.289Z,48.00
2018-06-19T08:38:51.777Z,44.60
2018-06-19T08:41:19.944Z,45.60
2018-06-19T08:46:16.088Z,48.20
2018-06-19T08:48:44.272Z,49.30
2018-06-19T08:51:13.037Z,50.50
2018-06-19T08:53:41.495Z,50.90
2018-06-19T08:56:09.678Z,51.60
2018-06-19T08:58:37.861Z,51.70
2018-06-19T09:01:06.156Z,51.30
2018-06-19T09:03:34.299Z,49.40
2018-06-19T09:06:02.480Z,47.30
2018-06-19T09:08:30.864Z,43.80
2018-06-19T09:10:59.032Z,43.30
2018-06-19T09:13:27.248Z,42.10
2018-06-19T09:15:55.381Z,42.60
2018-06-19T09:18:23.544Z,43.50
2018-06-19T09:20:51.723Z,43.50
2018-06-19T09:23:19.890Z,43.80
2018-06-19T09:25:48.092Z,44.60
2018-06-19T09:28:16.270Z,45.10
2018-06-19T09:30:44.437Z,43.40
2018-06-19T09:33:12.670Z,44.80
2018-06-19T09:35:41.168Z,45.50
2018-06-19T09:38:09.339Z,45.30
2018-06-19T09:40:37.536Z,44.30
2018-06-19T09:43:05.763Z,44.90
2018-06-19T09:45:33.924Z,44.30
2018-06-19T09:48:02.098Z,43.80
2018-06-19T09:50:30.275Z,43.50
2018-06-19T09:52:58.464Z,42.30
2018-06-19T09:55:26.664Z,41.30
2018-06-19T09:57:54.833Z,40.90
2018-06-19T10:00:28.341Z,42.80
2018-06-19T10:02:56.526Z,41.80
2018-06-19T10:05:24.701Z,40.40
2018-06-19T10:07:53.033Z,39.50
2018-06-19T10:10:21.209Z,40.60
2018-06-19T10:12:49.384Z,41.50
2018-06-19T10:15:17.699Z,40.20
2018-06-19T10:17:45.871Z,38.80
2018-06-19T10:20:14.142Z,37.20
2018-06-19T10:22:42.387Z,37.30
2018-06-19T10:25:10.609Z,36.70
2018-06-19T10:27:38.811Z,37.90
2018-06-19T10:30:07.016Z,38.30
2018-06-19T10:32:35.400Z,39.60
2018-06-19T10:35:03.588Z,41.70
2018-06-19T10:37:31.749Z,42.40
2018-06-19T10:40:00.644Z,42.80
2018-06-19T10:42:28.806Z,43.90
2018-06-19T10:44:56.999Z,44.00
2018-06-19T10:47:25.193Z,44.70
2018-06-19T10:52:21.458Z,44.50
2018-06-19T10:54:49.666Z,40.90
2018-06-19T10:57:17.833Z,40.40
2018-06-19T10:59:46.448Z,39.90
2018-06-19T11:02:14.641Z,39.10
2018-06-19T11:04:42.803Z,37.60
2018-06-19T11:07:11.197Z,36.60
2018-06-19T11:09:39.362Z,37.70
2018-06-19T11:12:07.537Z,38.20
2018-06-19T11:14:35.719Z,39.40
2018-06-19T11:17:03.875Z,41.50
2018-06-19T11:19:32.048Z,39.80
2018-06-19T11:22:00.227Z,40.70
2018-06-19T11:24:28.400Z,38.90
2018-06-19T11:26:56.572Z,39.30
2018-06-19T11:29:24.728Z,38.40
2018-06-19T11:31:52.904Z,36.90
2018-06-19T11:34:21.080Z,38.50
2018-06-19T11:36:49.269Z,39.20
2018-06-19T11:39:17.413Z,40.90
2018-06-19T11:41:45.593Z,39.00
2018-06-19T11:44:13.771Z,38.90
2018-06-19T11:46:41.933Z,38.60
2018-06-19T11:49:10.246Z,39.00
2018-06-19T11:51:38.324Z,40.70
2018-06-19T11:56:34.426Z,37.00
2018-06-19T11:59:02.688Z,35.60
2018-06-19T12:01:30.867Z,35.40
2018-06-19T12:03:59.146Z,35.20
2018-06-19T12:06:27.383Z,35.00
2018-06-19T12:08:55.630Z,36.10
2018-06-19T12:11:24.875Z,36.80
2018-06-19T12:13:53.235Z,36.40
2018-06-19T12:16:21.407Z,36.40
2018-06-19T12:18:49.593Z,34.40
2018-06-19T12:21:18.286Z,33.60
2018-06-19T12:23:47.228Z,33.30
2018-06-19T12:26:15.373Z,33.40
2018-06-19T12:28:43.564Z,34.30
2018-06-19T12:31:11.749Z,36.10
2018-06-19T12:33:40.170Z,34.80
2018-06-19T12:36:08.796Z,34.80
2018-06-19T12:38:37.379Z,35.40
2018-06-19T12:41:05.662Z,33.90
2018-06-19T12:43:33.901Z,34.30
2018-06-19T12:46:02.133Z,35.20
2018-06-19T12:51:43.482Z,33.90
2018-06-19T12:54:23.229Z,34.10
2018-06-19T12:56:51.411Z,32.70
2018-06-19T12:59:20.350Z,32.10
2018-06-19T13:01:48.672Z,33.10
2018-06-19T13:04:28.355Z,33.10
2018-06-19T13:06:56.539Z,33.40
2018-06-19T13:09:24.698Z,33.80
2018-06-19T13:11:53.000Z,32.30
2018-06-19T13:14:32.545Z,33.30
2018-06-19T13:17:12.207Z,31.90
2018-06-19T13:24:42.071Z,30.20
2018-06-19T13:27:10.262Z,31.70
2018-06-19T13:32:13.647Z,32.60
2018-06-19T13:34:41.847Z,33.10
2018-06-19T13:37:10.148Z,34.60
2018-06-19T13:39:39.018Z,32.40
2018-06-19T13:44:51.512Z,32.20
2018-06-19T13:49:48.119Z,30.00
2018-06-19T13:52:16.281Z,29.80
2018-06-19T13:54:44.475Z,29.70
2018-06-19T13:57:42.077Z,27.80
2018-06-19T14:00:14.301Z,28.50
2018-06-19T14:02:45.465Z,28.10
2018-06-19T14:05:16.177Z,28.10
2018-06-19T14:08:05.635Z,27.70
2018-06-19T14:10:45.180Z,28.50
2018-06-19T14:13:13.346Z,28.50
2018-06-19T14:15:48.515Z,29.30
2018-06-19T14:18:17.720Z,29.50
2018-06-19T14:23:14.097Z,28.40
2018-06-19T14:25:42.258Z,28.00
2018-06-19T14:28:10.559Z,28.20
2018-06-19T14:30:38.741Z,28.00
2018-06-19T14:33:06.914Z,27.80
2018-06-19T14:35:35.084Z,28.00
2018-06-19T14:38:03.298Z,28.00
2018-06-19T14:40:31.477Z,28.20
2018-06-19T14:42:59.732Z,27.40
2018-06-19T14:45:28.243Z,27.50
2018-06-19T14:47:56.484Z,27.90
2018-06-19T14:50:26.113Z,27.70
2018-06-19T14:52:54.317Z,27.30
2018-06-19T14:55:22.497Z,27.50
2018-06-19T14:57:50.703Z,27.10
2018-06-19T15:00:18.936Z,25.70
2018-06-19T15:02:47.809Z,25.90
2018-06-19T15:05:15.985Z,26.50
2018-06-19T15:07:49.681Z,26.10
2018-06-19T15:10:18.440Z,25.60
2018-06-19T15:12:46.560Z,26.30
2018-06-19T15:15:14.720Z,26.80
2018-06-19T15:17:42.910Z,26.90
2018-06-19T15:20:12.409Z,26.70
2018-06-19T15:22:40.631Z,27.30
2018-06-19T15:25:08.818Z,26.90
2018-06-19T15:27:37.014Z,27.20
2018-06-19T15:30:05.204Z,27.30
2018-06-19T15:32:33.392Z,27.50
2018-06-19T15:35:01.596Z,27.70
2018-06-19T15:37:29.828Z,27.00
2018-06-19T15:39:57.997Z,26.80
2018-06-19T15:42:26.153Z,26.80
2018-06-19T15:44:54.397Z,27.10
2018-06-19T15:47:22.593Z,26.50
2018-06-19T15:49:50.780Z,26.20
2018-06-19T15:52:19.043Z,26.20
2018-06-19T15:54:47.237Z,27.30
2018-06-19T15:57:15.433Z,26.90
2018-06-19T15:59:43.892Z,26.60
2018-06-19T16:02:12.064Z,26.40
2018-06-19T16:04:40.238Z,26.60
2018-06-19T16:07:08.421Z,26.20
2018-06-19T16:09:36.620Z,26.40
2018-06-19T16:12:04.831Z,26.90
2018-06-19T16:14:33.027Z,26.80
2018-06-19T16:17:01.257Z,27.10
2018-06-19T16:19:29.441Z,26.50
2018-06-19T16:21:57.623Z,26.20
2018-06-19T16:24:25.804Z,26.50
2018-06-19T16:26:54.320Z,26.90
2018-06-19T16:31:50.440Z,27.70
2018-06-19T16:34:18.595Z,28.00
2018-06-19T16:36:47.453Z,29.00
2018-06-19T16:39:15.632Z,29.70
2018-06-19T16:41:43.881Z,30.20
2018-06-19T16:44:12.125Z,31.20
2018-06-19T16:46:40.316Z,31.50
2018-06-19T16:49:08.479Z,32.20
2018-06-19T16:51:36.647Z,31.90
2018-06-19T16:54:04.891Z,31.50
2018-06-19T16:56:33.124Z,31.50
2018-06-19T16:59:01.357Z,31.00
2018-06-19T17:01:29.571Z,29.90
2018-06-19T17:03:57.704Z,29.90
2018-06-19T17:06:25.923Z,29.80
2018-06-19T17:08:54.575Z,29.90
2018-06-19T17:11:22.845Z,30.50
2018-06-19T17:13:51.048Z,31.70
2018-06-19T17:16:19.194Z,33.20
2018-06-19T17:18:47.585Z,35.20
2018-06-19T17:21:15.809Z,37.50
2018-06-19T17:26:11.981Z,41.00
2018-06-19T17:28:40.160Z,42.30
2018-06-19T17:31:08.423Z,43.40
2018-06-19T17:33:36.753Z,44.50
2018-06-19T17:36:04.916Z,45.60
2018-06-19T17:38:33.099Z,46.40
2018-06-19T17:41:01.331Z,47.90
2018-06-19T17:43:29.603Z,48.30
2018-06-19T17:45:57.776Z,48.80
2018-06-19T17:48:25.946Z,48.70
2018-06-19T17:50:54.866Z,48.90
2018-06-19T17:53:23.059Z,49.80
2018-06-19T17:55:51.217Z,49.90
2018-06-19T17:58:19.402Z,50.30
2018-06-19T18:00:47.584Z,50.60
2018-06-19T18:03:15.747Z,51.00
2018-06-19T18:05:43.920Z,51.40
2018-06-19T18:08:12.094Z,51.70
2018-06-19T18:10:40.317Z,52.60
2018-06-19T18:13:08.420Z,53.10
2018-06-19T18:15:36.687Z,53.60
2018-06-19T18:18:04.809Z,54.00
2018-06-19T18:20:32.958Z,53.90
2018-06-19T18:23:01.141Z,54.30
2018-06-19T18:25:29.308Z,54.50
2018-06-19T18:27:57.488Z,54.30
2018-06-19T18:30:26.021Z,54.50
2018-06-19T18:32:54.200Z,55.20
2018-06-19T18:35:22.377Z,55.80
2018-06-19T18:37:50.539Z,56.10
2018-06-19T18:40:18.713Z,56.80
2018-06-19T18:42:46.851Z,57.10
2018-06-19T18:45:15.050Z,57.60
2018-06-19T18:47:43.217Z,58.00
2018-06-19T18:50:11.402Z,58.20
2018-06-19T18:52:39.629Z,59.10
2018-06-19T18:55:07.832Z,59.20
2018-06-19T18:57:36.005Z,60.00
2018-06-19T19:00:04.343Z,61.00
2018-06-19T19:02:32.545Z,61.70
2018-06-19T19:05:00.778Z,61.80
2018-06-19T19:07:29.006Z,62.20
2018-06-19T19:10:02.573Z,62.90
2018-06-19T19:12:30.855Z,63.60
2018-06-19T19:15:04.505Z,64.50
2018-06-19T19:17:37.964Z,64.90
2018-06-19T19:20:06.221Z,66.20
2018-06-19T19:22:34.405Z,66.50
2018-06-19T19:25:02.793Z,67.40
2018-06-19T19:27:36.522Z,67.80
2018-06-19T19:30:05.096Z,68.40
2018-06-19T19:32:33.347Z,69.20
2018-06-19T19:35:01.567Z,69.80
2018-06-19T19:37:35.380Z,70.50
2018-06-19T19:40:03.785Z,71.20
2018-06-19T19:42:32.187Z,72.10
2018-06-19T19:45:00.415Z,72.20
2018-06-19T19:47:34.106Z,72.80
2018-06-19T19:50:02.331Z,73.10
2018-06-19T19:52:30.514Z,73.70
2018-06-19T19:54:58.853Z,74.40
2018-06-19T19:57:32.254Z,75.70
2018-06-19T20:00:00.425Z,76.30
2018-06-19T20:02:28.607Z,77.20
2018-06-19T20:04:57.007Z,77.40
2018-06-19T20:07:25.222Z,78.40
2018-06-19T20:09:53.401Z,78.70
2018-06-19T20:12:21.616Z,79.10
2018-06-19T20:14:49.800Z,79.50
2018-06-19T20:17:17.970Z,80.00
2018-06-19T20:19:46.255Z,80.40
2018-06-19T20:22:14.585Z,81.50
2018-06-19T20:24:42.749Z,82.30
2018-06-19T20:27:10.941Z,83.60
2018-06-19T20:29:39.273Z,83.60
2018-06-19T20:32:07.654Z,84.10
2018-06-19T20:34:35.860Z,84.30
2018-06-19T20:37:04.047Z,84.80
2018-06-19T20:39:32.832Z,85.70
2018-06-19T20:42:00.994Z,85.90
2018-06-19T20:44:29.571Z,86.40
2018-06-19T20:46:57.759Z,86.80
2018-06-19T20:49:26.076Z,87.70
2018-06-19T20:51:54.289Z,88.00
2018-06-19T20:54:22.532Z,88.20
2018-06-19T20:56:50.748Z,88.70
2018-06-19T20:59:18.942Z,89.00
2018-06-19T21:01:47.144Z,89.60
2018-06-19T21:06:49.961Z,90.10
2018-06-19T21:09:18.324Z,90.50
2018-06-19T21:11:46.501Z,90.70
2018-06-19T21:14:14.720Z,91.00
2018-06-19T21:16:42.987Z,91.10
2018-06-19T21:19:11.214Z,91.20
2018-06-19T21:21:39.367Z,91.90
2018-06-19T21:24:07.857Z,91.60
2018-06-19T21:29:04.006Z,92.20
2018-06-19T21:31:32.168Z,92.40
2018-06-19T21:34:00.329Z,92.40
2018-06-19T21:36:28.547Z,92.60
2018-06-19T21:38:56.754Z,92.80
2018-06-19T21:41:25.375Z,92.90
2018-06-19T21:43:53.749Z,93.00
2018-06-19T21:46:21.950Z,93.20
2018-06-19T21:48:50.095Z,93.30
2018-06-19T21:51:18.286Z,93.40
2018-06-19T21:53:46.467Z,93.80
2018-06-19T21:56:14.776Z,94.20
2018-06-19T21:58:42.987Z,94.70
2018-06-19T22:01:11.156Z,95.00
2018-06-19T22:03:39.396Z,95.50
2018-06-19T22:06:07.636Z,95.60
2018-06-19T22:08:41.176Z,95.80
2018-06-19T22:11:09.352Z,96.20
2018-06-19T22:13:37.670Z,96.40
2018-06-19T22:16:06.185Z,96.50
2018-06-19T22:18:34.397Z,96.80
2018-06-19T22:21:02.620Z,96.90
2018-06-19T22:23:30.797Z,97.30
2018-06-19T22:25:58.985Z,97.00
2018-06-19T22:28:27.204Z,97.30
2018-06-19T22:30:55.411Z,97.50
2018-06-19T22:33:23.612Z,97.70
2018-06-19T22:35:51.793Z,97.70
2018-06-19T22:38:20.111Z,97.90
2018-06-19T22:40:48.559Z,98.00
2018-06-19T22:43:16.773Z,98.10
2018-06-19T22:45:44.946Z,98.30
2018-06-19T22:48:13.536Z,98.50
2018-06-19T22:50:42.708Z,98.60
2018-06-19T22:53:10.888Z,98.90
2018-06-19T22:55:39.129Z,98.90
2018-06-19T22:58:07.294Z,98.80
2018-06-19T23:03:05.269Z,98.90
2018-06-19T23:05:34.705Z,99.00
2018-06-19T23:08:03.348Z,99.10
2018-06-19T23:10:31.604Z,99.30
2018-06-19T23:13:00.911Z,99.50
2018-06-19T23:15:29.080Z,99.60
2018-06-19T23:17:57.252Z,99.70
2018-06-19T23:20:25.414Z,99.90
2018-06-19T23:22:53.592Z,99.90
2018-06-19T23:25:21.822Z,99.90
2018-06-19T23:27:50.036Z,99.90
2018-06-19T23:30:18.706Z,99.90
2018-06-19T23:32:47.036Z,99.90
2018-06-19T23:35:15.189Z,99.90
2018-06-19T23:37:43.661Z,99.90
2018-06-19T23:40:11.992Z,99.90
2018-06-19T23:42:40.190Z,99.90
2018-06-19T23:45:08.344Z,99.90
2018-06-19T23:47:36.512Z,99.90
2018-06-19T23:50:04.900Z,99.90
2018-06-19T23:52:33.060Z,99.90
2018-06-19T23:55:01.215Z,99.90
2018-06-19T23:57:29.412Z,99.90
2018-06-19T23:59:57.584Z,99.90
